sensor_id;sensor_type;location;lat;lon;timestamp;P1;durP1;ratioP1;P2;durP2;ratioP2
75021;SDS011;63583;49.976;20.182;2022-11-02T00:00:24;7.30;;;4.45;;
75021;SDS011;63583;49.976;20.182;2022-11-02T00:03:11;7.70;;;3.70;;
75021;SDS011;63583;49.976;20.182;2022-11-02T00:05:37;5.50;;;3.53;;
75021;SDS011;63583;49.976;20.182;2022-11-02T00:08:03;7.40;;;3.95;;
75021;SDS011;63583;49.976;20.182;2022-11-02T00:10:29;7.28;;;3.30;;
75021;SDS011;63583;49.976;20.182;2022-11-02T00:12:55;7.85;;;4.50;;
75021;SDS011;63583;49.976;20.182;2022-11-02T00:15:21;7.95;;;3.78;;
75021;SDS011;63583;49.976;20.182;2022-11-02T00:17:52;8.10;;;4.53;;
75021;SDS011;63583;49.976;20.182;2022-11-02T00:20:22;9.48;;;4.07;;
75021;SDS011;63583;49.976;20.182;2022-11-02T00:22:50;10.43;;;4.10;;
75021;SDS011;63583;49.976;20.182;2022-11-02T00:25:23;10.25;;;4.88;;
75021;SDS011;63583;49.976;20.182;2022-11-02T00:27:50;7.65;;;4.35;;
75021;SDS011;63583;49.976;20.182;2022-11-02T00:30:16;12.57;;;5.05;;
75021;SDS011;63583;49.976;20.182;2022-11-02T00:32:42;8.48;;;4.43;;
75021;SDS011;63583;49.976;20.182;2022-11-02T00:35:08;9.05;;;4.65;;
75021;SDS011;63583;49.976;20.182;2022-11-02T00:37:34;8.23;;;4.40;;
75021;SDS011;63583;49.976;20.182;2022-11-02T00:40:00;8.77;;;4.65;;
75021;SDS011;63583;49.976;20.182;2022-11-02T00:42:26;8.73;;;4.82;;
75021;SDS011;63583;49.976;20.182;2022-11-02T00:44:52;10.82;;;4.30;;
75021;SDS011;63583;49.976;20.182;2022-11-02T00:47:18;9.10;;;4.43;;
75021;SDS011;63583;49.976;20.182;2022-11-02T00:49:44;6.22;;;3.53;;
75021;SDS011;63583;49.976;20.182;2022-11-02T00:52:10;8.45;;;4.45;;
75021;SDS011;63583;49.976;20.182;2022-11-02T00:54:36;6.35;;;3.67;;
75021;SDS011;63583;49.976;20.182;2022-11-02T00:57:01;6.80;;;3.53;;
75021;SDS011;63583;49.976;20.182;2022-11-02T00:59:28;8.15;;;4.45;;
75021;SDS011;63583;49.976;20.182;2022-11-02T01:01:53;6.88;;;3.55;;
75021;SDS011;63583;49.976;20.182;2022-11-02T01:04:19;5.90;;;3.58;;
75021;SDS011;63583;49.976;20.182;2022-11-02T01:06:45;7.20;;;4.15;;
75021;SDS011;63583;49.976;20.182;2022-11-02T01:09:12;8.95;;;4.57;;
75021;SDS011;63583;49.976;20.182;2022-11-02T01:11:38;10.80;;;5.10;;
75021;SDS011;63583;49.976;20.182;2022-11-02T01:14:05;9.35;;;4.88;;
75021;SDS011;63583;49.976;20.182;2022-11-02T01:16:30;9.55;;;5.20;;
75021;SDS011;63583;49.976;20.182;2022-11-02T01:18:56;9.45;;;4.65;;
75021;SDS011;63583;49.976;20.182;2022-11-02T01:21:23;8.30;;;4.43;;
75021;SDS011;63583;49.976;20.182;2022-11-02T01:23:49;10.35;;;4.93;;
75021;SDS011;63583;49.976;20.182;2022-11-02T01:26:15;9.82;;;5.80;;
75021;SDS011;63583;49.976;20.182;2022-11-02T01:28:42;8.73;;;5.13;;
75021;SDS011;63583;49.976;20.182;2022-11-02T01:31:08;10.02;;;5.43;;
75021;SDS011;63583;49.976;20.182;2022-11-02T01:33:35;14.32;;;6.55;;
75021;SDS011;63583;49.976;20.182;2022-11-02T01:36:05;8.80;;;5.10;;
75021;SDS011;63583;49.976;20.182;2022-11-02T01:38:31;9.85;;;5.18;;
75021;SDS011;63583;49.976;20.182;2022-11-02T01:40:58;9.65;;;5.82;;
75021;SDS011;63583;49.976;20.182;2022-11-02T01:43:25;7.85;;;5.22;;
75021;SDS011;63583;49.976;20.182;2022-11-02T01:46:14;10.65;;;5.72;;
75021;SDS011;63583;49.976;20.182;2022-11-02T01:51:17;10.75;;;4.63;;
75021;SDS011;63583;49.976;20.182;2022-11-02T01:53:44;10.32;;;5.40;;
75021;SDS011;63583;49.976;20.182;2022-11-02T01:56:14;10.10;;;5.18;;
75021;SDS011;63583;49.976;20.182;2022-11-02T01:58:45;8.73;;;4.68;;
75021;SDS011;63583;49.976;20.182;2022-11-02T02:01:18;9.52;;;4.25;;
75021;SDS011;63583;49.976;20.182;2022-11-02T02:03:44;10.07;;;4.45;;
75021;SDS011;63583;49.976;20.182;2022-11-02T02:06:12;8.57;;;4.43;;
75021;SDS011;63583;49.976;20.182;2022-11-02T02:08:40;7.53;;;4.63;;
75021;SDS011;63583;49.976;20.182;2022-11-02T02:11:29;10.30;;;5.13;;
75021;SDS011;63583;49.976;20.182;2022-11-02T02:13:58;9.68;;;4.57;;
75021;SDS011;63583;49.976;20.182;2022-11-02T02:25:48;9.32;;;5.22;;
75021;SDS011;63583;49.976;20.182;2022-11-02T02:33:57;7.75;;;4.85;;
75021;SDS011;63583;49.976;20.182;2022-11-02T02:39:22;10.07;;;5.20;;
75021;SDS011;63583;49.976;20.182;2022-11-02T02:42:17;8.40;;;4.07;;
75021;SDS011;63583;49.976;20.182;2022-11-02T02:47:42;6.60;;;4.03;;
75021;SDS011;63583;49.976;20.182;2022-11-02T02:50:16;10.45;;;4.90;;
75021;SDS011;63583;49.976;20.182;2022-11-02T02:52:47;10.05;;;4.50;;
75021;SDS011;63583;49.976;20.182;2022-11-02T02:55:17;9.55;;;4.65;;
75021;SDS011;63583;49.976;20.182;2022-11-02T02:57:47;8.48;;;3.75;;
75021;SDS011;63583;49.976;20.182;2022-11-02T03:00:20;7.95;;;4.43;;
75021;SDS011;63583;49.976;20.182;2022-11-02T03:02:47;8.48;;;4.40;;
75021;SDS011;63583;49.976;20.182;2022-11-02T03:05:33;8.45;;;4.30;;
75021;SDS011;63583;49.976;20.182;2022-11-02T03:08:09;8.98;;;4.28;;
75021;SDS011;63583;49.976;20.182;2022-11-02T03:10:54;7.10;;;4.15;;
75021;SDS011;63583;49.976;20.182;2022-11-02T03:19:16;8.50;;;4.45;;
75021;SDS011;63583;49.976;20.182;2022-11-02T03:21:49;9.50;;;4.05;;
75021;SDS011;63583;49.976;20.182;2022-11-02T03:24:25;6.45;;;3.33;;
75021;SDS011;63583;49.976;20.182;2022-11-02T03:30:09;6.50;;;3.80;;
75021;SDS011;63583;49.976;20.182;2022-11-02T03:32:53;9.05;;;3.92;;
75021;SDS011;63583;49.976;20.182;2022-11-02T03:35:27;7.35;;;4.13;;
75021;SDS011;63583;49.976;20.182;2022-11-02T03:37:56;9.98;;;4.95;;
75021;SDS011;63583;49.976;20.182;2022-11-02T03:40:27;9.63;;;4.47;;
75021;SDS011;63583;49.976;20.182;2022-11-02T03:42:56;10.05;;;4.78;;
75021;SDS011;63583;49.976;20.182;2022-11-02T03:45:23;9.85;;;5.30;;
75021;SDS011;63583;49.976;20.182;2022-11-02T03:47:57;7.72;;;4.50;;
75021;SDS011;63583;49.976;20.182;2022-11-02T03:50:26;10.95;;;4.93;;
75021;SDS011;63583;49.976;20.182;2022-11-02T03:52:55;9.75;;;5.07;;
75021;SDS011;63583;49.976;20.182;2022-11-02T03:55:41;10.15;;;4.53;;
75021;SDS011;63583;49.976;20.182;2022-11-02T03:58:22;10.60;;;5.40;;
75021;SDS011;63583;49.976;20.182;2022-11-02T04:00:49;10.60;;;4.85;;
75021;SDS011;63583;49.976;20.182;2022-11-02T04:03:21;11.32;;;5.07;;
75021;SDS011;63583;49.976;20.182;2022-11-02T04:05:48;9.68;;;4.43;;
75021;SDS011;63583;49.976;20.182;2022-11-02T04:08:16;10.75;;;4.50;;
75021;SDS011;63583;49.976;20.182;2022-11-02T04:10:46;8.20;;;4.20;;
75021;SDS011;63583;49.976;20.182;2022-11-02T04:13:34;9.43;;;4.40;;
75021;SDS011;63583;49.976;20.182;2022-11-02T04:16:19;11.75;;;4.82;;
75021;SDS011;63583;49.976;20.182;2022-11-02T04:18:45;5.18;;;3.83;;
75021;SDS011;63583;49.976;20.182;2022-11-02T04:21:30;4.72;;;3.25;;
75021;SDS011;63583;49.976;20.182;2022-11-02T04:23:56;8.07;;;4.18;;
75021;SDS011;63583;49.976;20.182;2022-11-02T04:26:40;9.57;;;4.82;;
75021;SDS011;63583;49.976;20.182;2022-11-02T04:29:06;7.72;;;3.85;;
75021;SDS011;63583;49.976;20.182;2022-11-02T04:31:32;10.63;;;4.68;;
75021;SDS011;63583;49.976;20.182;2022-11-02T04:33:58;8.90;;;5.00;;
75021;SDS011;63583;49.976;20.182;2022-11-02T04:36:24;9.93;;;5.07;;
75021;SDS011;63583;49.976;20.182;2022-11-02T04:38:52;13.75;;;5.90;;
75021;SDS011;63583;49.976;20.182;2022-11-02T04:41:19;8.70;;;4.82;;
75021;SDS011;63583;49.976;20.182;2022-11-02T04:44:04;10.63;;;5.55;;
75021;SDS011;63583;49.976;20.182;2022-11-02T04:46:31;8.48;;;5.10;;
75021;SDS011;63583;49.976;20.182;2022-11-02T04:48:59;7.70;;;4.78;;
75021;SDS011;63583;49.976;20.182;2022-11-02T04:51:26;7.55;;;3.78;;
75021;SDS011;63583;49.976;20.182;2022-11-02T04:53:53;8.40;;;3.95;;
75021;SDS011;63583;49.976;20.182;2022-11-02T04:56:20;10.48;;;4.60;;
75021;SDS011;63583;49.976;20.182;2022-11-02T04:58:49;6.88;;;3.92;;
75021;SDS011;63583;49.976;20.182;2022-11-02T05:01:17;7.38;;;3.72;;
75021;SDS011;63583;49.976;20.182;2022-11-02T05:03:47;6.68;;;3.92;;
75021;SDS011;63583;49.976;20.182;2022-11-02T05:06:15;8.30;;;4.43;;
75021;SDS011;63583;49.976;20.182;2022-11-02T05:08:44;7.75;;;4.18;;
75021;SDS011;63583;49.976;20.182;2022-11-02T05:11:10;8.25;;;4.53;;
75021;SDS011;63583;49.976;20.182;2022-11-02T05:13:37;10.95;;;4.40;;
75021;SDS011;63583;49.976;20.182;2022-11-02T05:16:10;7.00;;;4.25;;
75021;SDS011;63583;49.976;20.182;2022-11-02T05:18:38;7.03;;;3.85;;
75021;SDS011;63583;49.976;20.182;2022-11-02T05:21:04;9.50;;;4.47;;
75021;SDS011;63583;49.976;20.182;2022-11-02T05:23:31;8.38;;;4.07;;
75021;SDS011;63583;49.976;20.182;2022-11-02T05:25:57;6.78;;;3.83;;
75021;SDS011;63583;49.976;20.182;2022-11-02T05:28:25;15.05;;;4.50;;
75021;SDS011;63583;49.976;20.182;2022-11-02T05:30:52;8.88;;;4.03;;
75021;SDS011;63583;49.976;20.182;2022-11-02T05:33:17;7.15;;;4.07;;
75021;SDS011;63583;49.976;20.182;2022-11-02T05:36:09;7.88;;;3.78;;
75021;SDS011;63583;49.976;20.182;2022-11-02T05:38:35;7.00;;;3.25;;
75021;SDS011;63583;49.976;20.182;2022-11-02T05:41:01;5.45;;;3.67;;
75021;SDS011;63583;49.976;20.182;2022-11-02T05:43:27;9.30;;;4.15;;
75021;SDS011;63583;49.976;20.182;2022-11-02T05:45:56;8.68;;;4.15;;
75021;SDS011;63583;49.976;20.182;2022-11-02T05:48:24;8.75;;;4.45;;
75021;SDS011;63583;49.976;20.182;2022-11-02T05:50:55;7.88;;;3.67;;
75021;SDS011;63583;49.976;20.182;2022-11-02T05:53:21;9.52;;;5.43;;
75021;SDS011;63583;49.976;20.182;2022-11-02T05:55:48;11.30;;;5.22;;
75021;SDS011;63583;49.976;20.182;2022-11-02T05:58:14;10.65;;;4.82;;
75021;SDS011;63583;49.976;20.182;2022-11-02T06:00:40;8.25;;;5.00;;
75021;SDS011;63583;49.976;20.182;2022-11-02T06:03:05;7.68;;;3.92;;
75021;SDS011;63583;49.976;20.182;2022-11-02T06:05:32;8.75;;;4.72;;
75021;SDS011;63583;49.976;20.182;2022-11-02T06:08:17;8.68;;;4.63;;
75021;SDS011;63583;49.976;20.182;2022-11-02T06:10:43;12.48;;;5.50;;
75021;SDS011;63583;49.976;20.182;2022-11-02T06:13:09;9.93;;;5.20;;
75021;SDS011;63583;49.976;20.182;2022-11-02T06:15:35;11.32;;;5.32;;
75021;SDS011;63583;49.976;20.182;2022-11-02T06:18:00;9.70;;;5.22;;
75021;SDS011;63583;49.976;20.182;2022-11-02T06:20:26;8.68;;;4.32;;
75021;SDS011;63583;49.976;20.182;2022-11-02T06:22:52;10.43;;;4.53;;
75021;SDS011;63583;49.976;20.182;2022-11-02T06:25:18;9.80;;;4.40;;
75021;SDS011;63583;49.976;20.182;2022-11-02T06:27:53;9.02;;;5.07;;
75021;SDS011;63583;49.976;20.182;2022-11-02T06:30:24;9.32;;;4.82;;
75021;SDS011;63583;49.976;20.182;2022-11-02T06:32:52;9.95;;;4.95;;
75021;SDS011;63583;49.976;20.182;2022-11-02T06:35:20;10.95;;;5.00;;
75021;SDS011;63583;49.976;20.182;2022-11-02T06:37:46;6.63;;;3.90;;
75021;SDS011;63583;49.976;20.182;2022-11-02T06:40:13;8.25;;;5.05;;
75021;SDS011;63583;49.976;20.182;2022-11-02T06:42:40;9.90;;;4.45;;
75021;SDS011;63583;49.976;20.182;2022-11-02T06:45:06;7.45;;;4.43;;
75021;SDS011;63583;49.976;20.182;2022-11-02T06:47:33;7.43;;;4.18;;
75021;SDS011;63583;49.976;20.182;2022-11-02T06:50:01;9.40;;;4.18;;
75021;SDS011;63583;49.976;20.182;2022-11-02T06:52:28;11.88;;;5.10;;
75021;SDS011;63583;49.976;20.182;2022-11-02T06:54:55;11.52;;;5.07;;
75021;SDS011;63583;49.976;20.182;2022-11-02T06:57:21;7.95;;;4.70;;
75021;SDS011;63583;49.976;20.182;2022-11-02T06:59:48;7.68;;;4.65;;
75021;SDS011;63583;49.976;20.182;2022-11-02T07:02:13;8.63;;;5.28;;
75021;SDS011;63583;49.976;20.182;2022-11-02T07:04:40;9.45;;;5.35;;
75021;SDS011;63583;49.976;20.182;2022-11-02T07:07:05;8.90;;;4.78;;
75021;SDS011;63583;49.976;20.182;2022-11-02T07:09:31;10.10;;;5.40;;
75021;SDS011;63583;49.976;20.182;2022-11-02T07:11:57;10.52;;;4.68;;
75021;SDS011;63583;49.976;20.182;2022-11-02T07:14:23;9.35;;;4.75;;
75021;SDS011;63583;49.976;20.182;2022-11-02T07:16:48;11.00;;;4.47;;
75021;SDS011;63583;49.976;20.182;2022-11-02T07:19:14;9.32;;;5.13;;
75021;SDS011;63583;49.976;20.182;2022-11-02T07:21:39;11.07;;;5.18;;
75021;SDS011;63583;49.976;20.182;2022-11-02T07:24:05;7.88;;;4.32;;
75021;SDS011;63583;49.976;20.182;2022-11-02T07:26:31;9.40;;;5.15;;
75021;SDS011;63583;49.976;20.182;2022-11-02T07:28:57;11.35;;;5.05;;
75021;SDS011;63583;49.976;20.182;2022-11-02T07:31:22;8.82;;;4.88;;
75021;SDS011;63583;49.976;20.182;2022-11-02T07:33:48;7.35;;;4.82;;
75021;SDS011;63583;49.976;20.182;2022-11-02T07:36:14;10.48;;;4.82;;
75021;SDS011;63583;49.976;20.182;2022-11-02T07:38:40;8.35;;;4.57;;
75021;SDS011;63583;49.976;20.182;2022-11-02T07:41:06;9.50;;;5.20;;
75021;SDS011;63583;49.976;20.182;2022-11-02T07:43:32;12.23;;;5.70;;
75021;SDS011;63583;49.976;20.182;2022-11-02T07:46:00;11.45;;;5.65;;
75021;SDS011;63583;49.976;20.182;2022-11-02T07:50:52;10.82;;;4.85;;
75021;SDS011;63583;49.976;20.182;2022-11-02T07:53:18;11.45;;;5.38;;
75021;SDS011;63583;49.976;20.182;2022-11-02T07:55:44;9.00;;;5.38;;
75021;SDS011;63583;49.976;20.182;2022-11-02T07:58:10;7.72;;;4.63;;
75021;SDS011;63583;49.976;20.182;2022-11-02T08:00:39;9.60;;;4.75;;
75021;SDS011;63583;49.976;20.182;2022-11-02T08:03:06;10.63;;;5.05;;
75021;SDS011;63583;49.976;20.182;2022-11-02T08:05:34;8.95;;;4.85;;
75021;SDS011;63583;49.976;20.182;2022-11-02T08:11:48;7.30;;;4.47;;
75021;SDS011;63583;49.976;20.182;2022-11-02T08:14:14;11.32;;;5.25;;
75021;SDS011;63583;49.976;20.182;2022-11-02T08:16:40;11.52;;;5.47;;
75021;SDS011;63583;49.976;20.182;2022-11-02T08:19:06;10.70;;;4.85;;
75021;SDS011;63583;49.976;20.182;2022-11-02T08:21:32;9.63;;;5.35;;
75021;SDS011;63583;49.976;20.182;2022-11-02T08:23:58;10.05;;;5.30;;
75021;SDS011;63583;49.976;20.182;2022-11-02T08:26:23;10.13;;;5.07;;
75021;SDS011;63583;49.976;20.182;2022-11-02T08:28:49;10.10;;;5.30;;
75021;SDS011;63583;49.976;20.182;2022-11-02T08:31:15;8.52;;;4.65;;
75021;SDS011;63583;49.976;20.182;2022-11-02T08:33:45;13.48;;;6.40;;
75021;SDS011;63583;49.976;20.182;2022-11-02T08:36:10;9.23;;;4.70;;
75021;SDS011;63583;49.976;20.182;2022-11-02T08:38:37;9.85;;;4.90;;
75021;SDS011;63583;49.976;20.182;2022-11-02T08:41:03;10.48;;;4.88;;
75021;SDS011;63583;49.976;20.182;2022-11-02T08:43:30;10.23;;;5.00;;
75021;SDS011;63583;49.976;20.182;2022-11-02T08:45:56;13.02;;;4.68;;
75021;SDS011;63583;49.976;20.182;2022-11-02T08:48:24;9.95;;;4.95;;
75021;SDS011;63583;49.976;20.182;2022-11-02T08:50:50;9.82;;;4.93;;
75021;SDS011;63583;49.976;20.182;2022-11-02T08:53:16;11.13;;;5.35;;
75021;SDS011;63583;49.976;20.182;2022-11-02T08:55:42;10.90;;;4.10;;
75021;SDS011;63583;49.976;20.182;2022-11-02T09:00:39;8.55;;;3.78;;
75021;SDS011;63583;49.976;20.182;2022-11-02T09:03:19;7.22;;;3.78;;
75021;SDS011;63583;49.976;20.182;2022-11-02T09:05:55;7.75;;;3.95;;
75021;SDS011;63583;49.976;20.182;2022-11-02T09:08:23;6.88;;;3.72;;
75021;SDS011;63583;49.976;20.182;2022-11-02T09:10:50;9.68;;;4.45;;
75021;SDS011;63583;49.976;20.182;2022-11-02T09:13:17;8.02;;;3.58;;
75021;SDS011;63583;49.976;20.182;2022-11-02T09:15:53;9.07;;;4.30;;
75021;SDS011;63583;49.976;20.182;2022-11-02T09:18:20;7.45;;;3.83;;
75021;SDS011;63583;49.976;20.182;2022-11-02T09:20:46;7.63;;;4.00;;
75021;SDS011;63583;49.976;20.182;2022-11-02T09:23:14;9.02;;;4.38;;
75021;SDS011;63583;49.976;20.182;2022-11-02T09:25:40;8.68;;;3.95;;
75021;SDS011;63583;49.976;20.182;2022-11-02T09:28:06;6.85;;;3.35;;
75021;SDS011;63583;49.976;20.182;2022-11-02T09:30:33;5.53;;;3.22;;
75021;SDS011;63583;49.976;20.182;2022-11-02T09:33:00;7.38;;;3.72;;
75021;SDS011;63583;49.976;20.182;2022-11-02T09:35:29;7.20;;;3.50;;
75021;SDS011;63583;49.976;20.182;2022-11-02T09:37:56;6.70;;;3.40;;
75021;SDS011;63583;49.976;20.182;2022-11-02T09:40:23;7.22;;;3.15;;
75021;SDS011;63583;49.976;20.182;2022-11-02T09:45:20;7.35;;;3.53;;
75021;SDS011;63583;49.976;20.182;2022-11-02T09:47:52;6.85;;;3.55;;
75021;SDS011;63583;49.976;20.182;2022-11-02T09:50:22;8.60;;;3.65;;
75021;SDS011;63583;49.976;20.182;2022-11-02T09:52:55;7.57;;;3.55;;
75021;SDS011;63583;49.976;20.182;2022-11-02T09:55:26;5.93;;;3.05;;
75021;SDS011;63583;49.976;20.182;2022-11-02T09:57:58;8.73;;;4.15;;
75021;SDS011;63583;49.976;20.182;2022-11-02T10:00:31;7.75;;;3.72;;
75021;SDS011;63583;49.976;20.182;2022-11-02T10:05:40;7.53;;;3.22;;
75021;SDS011;63583;49.976;20.182;2022-11-02T10:16:23;6.18;;;2.97;;
75021;SDS011;63583;49.976;20.182;2022-11-02T10:18:55;7.43;;;3.78;;
75021;SDS011;63583;49.976;20.182;2022-11-02T10:21:39;6.32;;;3.60;;
75021;SDS011;63583;49.976;20.182;2022-11-02T10:27:05;5.38;;;2.80;;
75021;SDS011;63583;49.976;20.182;2022-11-02T10:32:48;7.70;;;3.58;;
75021;SDS011;63583;49.976;20.182;2022-11-02T10:35:23;5.50;;;3.78;;
75021;SDS011;63583;49.976;20.182;2022-11-02T10:46:12;4.38;;;2.60;;
75021;SDS011;63583;49.976;20.182;2022-11-02T10:51:55;5.70;;;2.67;;
75021;SDS011;63583;49.976;20.182;2022-11-02T10:54:21;4.18;;;2.20;;
75021;SDS011;63583;49.976;20.182;2022-11-02T10:56:47;9.38;;;3.13;;
75021;SDS011;63583;49.976;20.182;2022-11-02T10:59:14;3.83;;;2.05;;
75021;SDS011;63583;49.976;20.182;2022-11-02T11:01:45;5.30;;;1.85;;
75021;SDS011;63583;49.976;20.182;2022-11-02T11:04:28;6.15;;;3.08;;
75021;SDS011;63583;49.976;20.182;2022-11-02T11:07:02;4.05;;;2.08;;
75021;SDS011;63583;49.976;20.182;2022-11-02T11:09:38;4.90;;;1.77;;
75021;SDS011;63583;49.976;20.182;2022-11-02T11:12:16;5.47;;;2.15;;
75021;SDS011;63583;49.976;20.182;2022-11-02T11:14:47;4.30;;;2.67;;
75021;SDS011;63583;49.976;20.182;2022-11-02T11:17:34;5.38;;;2.40;;
75021;SDS011;63583;49.976;20.182;2022-11-02T11:20:06;3.70;;;1.85;;
75021;SDS011;63583;49.976;20.182;2022-11-02T11:31:08;4.13;;;2.25;;
75021;SDS011;63583;49.976;20.182;2022-11-02T11:33:50;4.57;;;2.20;;
75021;SDS011;63583;49.976;20.182;2022-11-02T11:36:40;3.00;;;1.83;;
75021;SDS011;63583;49.976;20.182;2022-11-02T11:39:24;2.67;;;1.75;;
75021;SDS011;63583;49.976;20.182;2022-11-02T11:41:52;4.00;;;1.90;;
75021;SDS011;63583;49.976;20.182;2022-11-02T11:44:18;4.72;;;2.15;;
75021;SDS011;63583;49.976;20.182;2022-11-02T11:46:53;4.72;;;2.03;;
75021;SDS011;63583;49.976;20.182;2022-11-02T11:49:22;5.10;;;2.10;;
75021;SDS011;63583;49.976;20.182;2022-11-02T11:51:51;3.35;;;2.03;;
75021;SDS011;63583;49.976;20.182;2022-11-02T11:56:52;3.00;;;1.67;;
75021;SDS011;63583;49.976;20.182;2022-11-02T11:59:30;3.83;;;2.38;;
75021;SDS011;63583;49.976;20.182;2022-11-02T12:02:31;4.20;;;1.60;;
75021;SDS011;63583;49.976;20.182;2022-11-02T12:04:59;2.97;;;1.27;;
75021;SDS011;63583;49.976;20.182;2022-11-02T12:15:58;2.20;;;1.40;;
75021;SDS011;63583;49.976;20.182;2022-11-02T12:21:16;3.85;;;1.98;;
75021;SDS011;63583;49.976;20.182;2022-11-02T12:44:54;2.75;;;1.17;;
75021;SDS011;63583;49.976;20.182;2022-11-02T12:48:15;2.58;;;1.38;;
75021;SDS011;63583;49.976;20.182;2022-11-02T12:55:58;4.18;;;1.80;;
75021;SDS011;63583;49.976;20.182;2022-11-02T12:58:27;2.90;;;1.65;;
75021;SDS011;63583;49.976;20.182;2022-11-02T13:06:32;4.18;;;1.52;;
75021;SDS011;63583;49.976;20.182;2022-11-02T13:09:09;3.33;;;1.50;;
75021;SDS011;63583;49.976;20.182;2022-11-02T13:11:44;3.67;;;1.90;;
75021;SDS011;63583;49.976;20.182;2022-11-02T13:14:16;2.95;;;2.17;;
75021;SDS011;63583;49.976;20.182;2022-11-02T13:19:17;2.50;;;1.30;;
75021;SDS011;63583;49.976;20.182;2022-11-02T13:21:48;3.05;;;1.83;;
75021;SDS011;63583;49.976;20.182;2022-11-02T13:24:21;3.47;;;1.70;;
75021;SDS011;63583;49.976;20.182;2022-11-02T13:26:51;2.65;;;1.27;;
75021;SDS011;63583;49.976;20.182;2022-11-02T13:29:23;3.45;;;2.10;;
75021;SDS011;63583;49.976;20.182;2022-11-02T13:32:00;2.92;;;1.38;;
75021;SDS011;63583;49.976;20.182;2022-11-02T13:34:34;3.38;;;1.58;;
75021;SDS011;63583;49.976;20.182;2022-11-02T13:37:05;3.05;;;1.67;;
75021;SDS011;63583;49.976;20.182;2022-11-02T13:39:36;4.15;;;1.83;;
75021;SDS011;63583;49.976;20.182;2022-11-02T13:50:30;2.72;;;1.48;;
75021;SDS011;63583;49.976;20.182;2022-11-02T13:53:02;2.58;;;1.50;;
75021;SDS011;63583;49.976;20.182;2022-11-02T13:58:04;3.63;;;1.70;;
75021;SDS011;63583;49.976;20.182;2022-11-02T14:00:34;4.43;;;1.90;;
75021;SDS011;63583;49.976;20.182;2022-11-02T14:03:11;3.20;;;1.60;;
75021;SDS011;63583;49.976;20.182;2022-11-02T14:05:48;3.25;;;1.38;;
75021;SDS011;63583;49.976;20.182;2022-11-02T14:08:28;2.08;;;1.13;;
75021;SDS011;63583;49.976;20.182;2022-11-02T14:11:46;2.47;;;1.17;;
75021;SDS011;63583;49.976;20.182;2022-11-02T14:27:02;3.45;;;1.58;;
75021;SDS011;63583;49.976;20.182;2022-11-02T14:29:35;3.42;;;1.60;;
75021;SDS011;63583;49.976;20.182;2022-11-02T14:48:45;3.92;;;1.65;;
75021;SDS011;63583;49.976;20.182;2022-11-02T14:51:58;4.40;;;1.90;;
75021;SDS011;63583;49.976;20.182;2022-11-02T14:54:06;3.97;;;1.90;;
75021;SDS011;63583;49.976;20.182;2022-11-02T14:59:37;6.30;;;2.72;;
75021;SDS011;63583;49.976;20.182;2022-11-02T15:02:13;3.65;;;2.22;;
75021;SDS011;63583;49.976;20.182;2022-11-02T15:04:49;6.82;;;2.60;;
75021;SDS011;63583;49.976;20.182;2022-11-02T15:07:18;4.25;;;2.40;;
75021;SDS011;63583;49.976;20.182;2022-11-02T15:09:57;7.68;;;3.63;;
75021;SDS011;63583;49.976;20.182;2022-11-02T15:12:26;8.40;;;4.18;;
75021;SDS011;63583;49.976;20.182;2022-11-02T15:20:25;14.20;;;5.95;;
75021;SDS011;63583;49.976;20.182;2022-11-02T15:22:55;11.27;;;5.32;;
75021;SDS011;63583;49.976;20.182;2022-11-02T15:28:01;29.55;;;12.88;;
75021;SDS011;63583;49.976;20.182;2022-11-02T15:30:30;35.40;;;12.82;;
75021;SDS011;63583;49.976;20.182;2022-11-02T15:33:04;31.58;;;13.90;;
75021;SDS011;63583;49.976;20.182;2022-11-02T15:35:35;36.28;;;12.57;;
75021;SDS011;63583;49.976;20.182;2022-11-02T15:38:02;22.20;;;9.05;;
75021;SDS011;63583;49.976;20.182;2022-11-02T15:43:03;33.22;;;11.85;;
75021;SDS011;63583;49.976;20.182;2022-11-02T15:45:48;42.65;;;16.00;;
75021;SDS011;63583;49.976;20.182;2022-11-02T15:51:01;28.95;;;10.70;;
75021;SDS011;63583;49.976;20.182;2022-11-02T15:53:55;37.72;;;15.18;;
75021;SDS011;63583;49.976;20.182;2022-11-02T15:59:26;38.72;;;14.70;;
75021;SDS011;63583;49.976;20.182;2022-11-02T16:04:57;30.25;;;12.15;;
75021;SDS011;63583;49.976;20.182;2022-11-02T16:07:26;20.00;;;8.38;;
75021;SDS011;63583;49.976;20.182;2022-11-02T16:09:53;20.70;;;8.20;;
75021;SDS011;63583;49.976;20.182;2022-11-02T16:12:20;20.13;;;7.80;;
75021;SDS011;63583;49.976;20.182;2022-11-02T16:17:18;12.23;;;5.03;;
75021;SDS011;63583;49.976;20.182;2022-11-02T16:19:48;20.48;;;8.18;;
75021;SDS011;63583;49.976;20.182;2022-11-02T16:22:22;16.77;;;6.90;;
75021;SDS011;63583;49.976;20.182;2022-11-02T16:24:52;15.93;;;7.18;;
75021;SDS011;63583;49.976;20.182;2022-11-02T16:27:19;12.63;;;6.43;;
75021;SDS011;63583;49.976;20.182;2022-11-02T16:29:46;9.10;;;4.78;;
75021;SDS011;63583;49.976;20.182;2022-11-02T16:32:13;10.80;;;5.85;;
75021;SDS011;63583;49.976;20.182;2022-11-02T16:34:39;6.18;;;4.07;;
75021;SDS011;63583;49.976;20.182;2022-11-02T16:37:08;10.07;;;4.00;;
75021;SDS011;63583;49.976;20.182;2022-11-02T16:39:37;9.57;;;5.05;;
75021;SDS011;63583;49.976;20.182;2022-11-02T16:42:07;10.05;;;4.35;;
75021;SDS011;63583;49.976;20.182;2022-11-02T16:44:36;8.02;;;3.65;;
75021;SDS011;63583;49.976;20.182;2022-11-02T16:49:31;7.45;;;4.05;;
75021;SDS011;63583;49.976;20.182;2022-11-02T16:52:14;7.20;;;3.88;;
75021;SDS011;63583;49.976;20.182;2022-11-02T16:54:44;6.93;;;3.85;;
75021;SDS011;63583;49.976;20.182;2022-11-02T16:59:36;8.35;;;4.55;;
75021;SDS011;63583;49.976;20.182;2022-11-02T17:02:10;8.27;;;3.47;;
75021;SDS011;63583;49.976;20.182;2022-11-02T17:04:41;9.70;;;4.20;;
75021;SDS011;63583;49.976;20.182;2022-11-02T17:07:12;6.88;;;3.58;;
75021;SDS011;63583;49.976;20.182;2022-11-02T17:09:42;8.25;;;3.90;;
75021;SDS011;63583;49.976;20.182;2022-11-02T17:12:12;9.20;;;3.33;;
75021;SDS011;63583;49.976;20.182;2022-11-02T17:14:43;6.65;;;4.05;;
75021;SDS011;63583;49.976;20.182;2022-11-02T17:19:52;6.30;;;3.20;;
75021;SDS011;63583;49.976;20.182;2022-11-02T17:24:48;9.52;;;3.55;;
75021;SDS011;63583;49.976;20.182;2022-11-02T17:27:49;4.78;;;2.58;;
75021;SDS011;63583;49.976;20.182;2022-11-02T17:32:55;6.47;;;3.58;;
75021;SDS011;63583;49.976;20.182;2022-11-02T17:35:22;8.23;;;4.15;;
75021;SDS011;63583;49.976;20.182;2022-11-02T17:37:48;11.30;;;4.50;;
75021;SDS011;63583;49.976;20.182;2022-11-02T17:40:14;10.20;;;4.50;;
75021;SDS011;63583;49.976;20.182;2022-11-02T17:42:40;12.00;;;5.50;;
75021;SDS011;63583;49.976;20.182;2022-11-02T17:45:26;9.18;;;4.22;;
75021;SDS011;63583;49.976;20.182;2022-11-02T17:47:57;8.77;;;4.00;;
75021;SDS011;63583;49.976;20.182;2022-11-02T17:50:25;9.95;;;4.85;;
75021;SDS011;63583;49.976;20.182;2022-11-02T17:52:53;7.88;;;4.57;;
75021;SDS011;63583;49.976;20.182;2022-11-02T17:55:21;9.50;;;4.32;;
75021;SDS011;63583;49.976;20.182;2022-11-02T17:57:49;8.00;;;4.38;;
75021;SDS011;63583;49.976;20.182;2022-11-02T18:00:15;5.10;;;3.38;;
75021;SDS011;63583;49.976;20.182;2022-11-02T18:02:42;6.45;;;3.60;;
75021;SDS011;63583;49.976;20.182;2022-11-02T18:07:44;6.82;;;2.72;;
75021;SDS011;63583;49.976;20.182;2022-11-02T18:10:10;4.93;;;3.38;;
75021;SDS011;63583;49.976;20.182;2022-11-02T18:12:36;7.82;;;3.70;;
75021;SDS011;63583;49.976;20.182;2022-11-02T18:15:03;5.45;;;3.30;;
75021;SDS011;63583;49.976;20.182;2022-11-02T18:17:30;5.80;;;3.42;;